createdAt,value
2022-08-17T00:01:56.909Z,59.02
2022-08-17T00:04:52.024Z,58.91
2022-08-17T00:07:47.695Z,58.62
2022-08-17T00:10:39.646Z,58.34
2022-08-17T00:13:33.421Z,57.94
2022-08-17T00:16:56.310Z,57.76
2022-08-17T00:19:42.410Z,57.34
2022-08-17T00:22:36.293Z,57.32
2022-08-17T00:25:27.862Z,57.31
2022-08-17T00:28:18.800Z,57.47
2022-08-17T00:31:13.123Z,57.49
2022-08-17T00:34:02.845Z,57.58
2022-08-17T00:36:52.682Z,57.50
2022-08-17T00:39:48.359Z,57.30
2022-08-17T00:42:39.813Z,57.14
2022-08-17T00:45:30.020Z,57.17
2022-08-17T00:48:28.984Z,56.96
2022-08-17T00:51:27.979Z,56.90
2022-08-17T00:54:22.320Z,56.78
2022-08-17T00:57:16.651Z,56.73
2022-08-17T01:00:13.121Z,56.55
2022-08-17T01:03:07.673Z,56.55
2022-08-17T01:06:04.576Z,56.51
2022-08-17T01:08:57.450Z,56.38
2022-08-17T01:11:50.327Z,56.27
2022-08-17T01:14:41.988Z,56.12
2022-08-17T01:17:32.484Z,56.16
2022-08-17T01:20:22.486Z,56.24
2022-08-17T01:23:12.966Z,56.19
2022-08-17T01:26:13.372Z,56.48
2022-08-17T01:29:05.204Z,56.38
2022-08-17T01:31:58.728Z,56.30
2022-08-17T01:34:50.992Z,56.25
2022-08-17T01:37:43.758Z,56.19
2022-08-17T01:40:39.109Z,56.18
2022-08-17T01:43:33.091Z,56.18
2022-08-17T01:46:28.528Z,56.25
2022-08-17T01:49:18.830Z,56.29
2022-08-17T01:52:12.030Z,56.17
2022-08-17T01:55:05.908Z,56.17
2022-08-17T01:57:58.188Z,56.17
2022-08-17T02:01:00.085Z,56.09
2022-08-17T02:04:01.152Z,56.22
2022-08-17T02:06:53.147Z,56.02
2022-08-17T02:09:52.671Z,56.00
2022-08-17T02:12:42.960Z,56.05
2022-08-17T02:15:34.804Z,56.00
2022-08-17T02:18:26.038Z,56.06
2022-08-17T02:21:16.897Z,56.03
2022-08-17T02:24:08.602Z,55.97
2022-08-17T02:26:58.930Z,56.06
2022-08-17T02:29:49.206Z,55.90
2022-08-17T02:32:40.486Z,55.99
2022-08-17T02:35:31.131Z,56.10
2022-08-17T02:38:21.419Z,55.87
2022-08-17T02:41:13.306Z,55.93
2022-08-17T02:44:04.454Z,55.87
2022-08-17T02:46:56.687Z,55.66
2022-08-17T02:49:54.461Z,55.44
2022-08-17T02:52:55.246Z,55.20
2022-08-17T02:55:55.435Z,55.13
2022-08-17T02:58:48.371Z,55.10
2022-08-17T03:01:38.679Z,55.09
2022-08-17T03:04:28.884Z,55.27
2022-08-17T03:07:20.321Z,55.32
2022-08-17T03:10:13.064Z,55.33
2022-08-17T03:13:02.905Z,55.35
2022-08-17T03:15:53.531Z,55.30
2022-08-17T03:18:43.812Z,55.33
2022-08-17T03:21:33.546Z,55.43
2022-08-17T03:24:25.129Z,55.47
2022-08-17T03:27:18.581Z,55.32
2022-08-17T03:30:13.161Z,55.18
2022-08-17T03:33:06.473Z,54.95
2022-08-17T03:35:57.034Z,54.74
2022-08-17T03:38:47.310Z,54.49
2022-08-17T03:41:38.437Z,54.34
2022-08-17T03:44:29.072Z,54.27
2022-08-17T03:47:36.700Z,54.14
2022-08-17T03:50:45.574Z,54.03
2022-08-17T03:54:04.718Z,54.17
2022-08-17T03:57:04.949Z,54.33
2022-08-17T03:59:56.022Z,54.80
2022-08-17T04:02:46.798Z,54.82
2022-08-17T04:05:37.334Z,54.87
2022-08-17T04:08:28.226Z,54.91
2022-08-17T04:11:18.546Z,54.96
2022-08-17T04:14:09.939Z,55.03
2022-08-17T04:17:00.332Z,55.07
2022-08-17T04:19:51.187Z,54.97
2022-08-17T04:22:42.042Z,54.77
2022-08-17T04:25:34.588Z,54.69
2022-08-17T04:28:24.963Z,54.67
2022-08-17T04:31:15.984Z,54.67
2022-08-17T04:34:06.126Z,54.66
2022-08-17T04:36:58.948Z,54.52
2022-08-17T04:40:09.318Z,54.49
2022-08-17T04:43:07.382Z,54.27
2022-08-17T04:46:00.223Z,54.39
2022-08-17T04:48:51.708Z,54.83
2022-08-17T04:51:47.913Z,55.12
2022-08-17T04:54:45.774Z,55.19
2022-08-17T04:57:39.334Z,55.40
2022-08-17T05:00:31.431Z,55.53
2022-08-17T05:03:22.418Z,55.57
2022-08-17T05:06:13.777Z,55.58
2022-08-17T05:09:04.399Z,55.65
2022-08-17T05:11:55.360Z,55.74
2022-08-17T05:14:46.919Z,55.71
2022-08-17T05:17:37.309Z,55.83
2022-08-17T05:20:28.564Z,55.82
2022-08-17T05:23:22.001Z,55.86
2022-08-17T05:26:25.495Z,55.97
2022-08-17T05:29:18.895Z,55.80
2022-08-17T05:32:38.033Z,55.78
2022-08-17T05:35:25.462Z,55.15
2022-08-17T05:38:16.566Z,54.90
2022-08-17T05:41:08.822Z,54.79
2022-08-17T05:43:58.803Z,54.65
2022-08-17T05:46:54.409Z,54.46
2022-08-17T05:49:44.850Z,54.43
2022-08-17T05:52:47.230Z,54.29
2022-08-17T05:55:46.157Z,54.34
2022-08-17T05:58:49.606Z,54.54
2022-08-17T06:01:56.307Z,54.53
2022-08-17T06:05:03.443Z,54.66
2022-08-17T06:08:08.034Z,54.79
2022-08-17T06:11:15.934Z,54.75
2022-08-17T06:14:33.046Z,54.53
2022-08-17T06:17:27.434Z,54.45
2022-08-17T06:20:18.414Z,54.31
2022-08-17T06:23:14.672Z,54.37
2022-08-17T06:26:10.111Z,54.34
2022-08-17T06:29:08.227Z,54.39
2022-08-17T06:32:12.909Z,54.12
2022-08-17T06:35:07.075Z,54.26
2022-08-17T06:38:36.875Z,54.40
2022-08-17T06:41:31.579Z,54.49
2022-08-17T06:44:43.537Z,54.48
2022-08-17T06:47:49.320Z,54.59
2022-08-17T06:50:44.269Z,54.76
2022-08-17T06:53:42.235Z,55.20
2022-08-17T06:56:53.295Z,55.25
2022-08-17T06:59:54.858Z,55.25
2022-08-17T07:02:55.465Z,55.26
2022-08-17T07:05:49.587Z,55.54
2022-08-17T07:08:50.838Z,55.75
2022-08-17T07:11:49.043Z,55.77
2022-08-17T07:14:47.297Z,55.69
2022-08-17T07:17:47.760Z,55.69
2022-08-17T07:20:44.426Z,55.66
2022-08-17T07:23:54.393Z,55.49
2022-08-17T07:26:45.112Z,55.56
2022-08-17T07:29:41.395Z,55.46
2022-08-17T07:32:36.576Z,55.28
2022-08-17T07:35:41.266Z,55.25
2022-08-17T07:38:36.321Z,55.36
2022-08-17T07:41:53.424Z,55.22
2022-08-17T07:44:51.654Z,55.32
2022-08-17T07:47:59.551Z,55.75
2022-08-17T07:50:53.251Z,55.86
2022-08-17T07:53:43.215Z,56.04
2022-08-17T07:56:41.189Z,56.19
2022-08-17T07:59:34.223Z,55.96
2022-08-17T08:02:34.309Z,56.23
2022-08-17T08:05:44.292Z,56.77
2022-08-17T08:08:42.461Z,56.90
2022-08-17T08:11:35.801Z,57.01
2022-08-17T08:14:31.080Z,56.87
2022-08-17T08:17:27.365Z,57.06
2022-08-17T08:20:37.615Z,57.45
2022-08-17T08:23:43.038Z,58.07
2022-08-17T08:26:42.418Z,58.43
2022-08-17T08:29:44.930Z,58.70
2022-08-17T08:32:48.125Z,59.21
2022-08-17T08:35:47.361Z,59.16
2022-08-17T08:38:48.187Z,59.41
2022-08-17T08:41:49.441Z,59.61
2022-08-17T08:45:00.159Z,59.75
2022-08-17T08:48:45.868Z,60.08
2022-08-17T08:51:40.131Z,60.17
2022-08-17T08:54:42.105Z,60.12
2022-08-17T08:57:37.475Z,60.27
2022-08-17T09:00:29.286Z,60.27
2022-08-17T09:03:52.297Z,60.17
2022-08-17T09:06:56.600Z,60.11
2022-08-17T09:09:59.347Z,60.05
2022-08-17T09:12:59.119Z,60.02
2022-08-17T09:15:56.048Z,59.71
2022-08-17T09:19:01.333Z,59.60
2022-08-17T09:21:59.735Z,59.58
2022-08-17T09:24:57.333Z,59.33
2022-08-17T09:27:57.513Z,59.27
2022-08-17T09:30:54.322Z,58.94
2022-08-17T09:33:48.384Z,58.80
2022-08-17T09:36:45.977Z,58.55
2022-08-17T09:39:41.158Z,58.39
2022-08-17T09:42:39.194Z,58.05
2022-08-17T09:45:37.312Z,58.16
2022-08-17T09:48:32.393Z,57.64
2022-08-17T09:51:31.630Z,57.48
2022-08-17T09:54:39.303Z,57.20
2022-08-17T09:57:43.623Z,57.14
2022-08-17T10:00:36.837Z,57.22
2022-08-17T10:03:50.984Z,57.08
2022-08-17T10:06:51.946Z,57.16
2022-08-17T10:09:56.216Z,57.12
2022-08-17T10:12:58.112Z,57.04
2022-08-17T10:15:56.030Z,57.22
2022-08-17T10:18:56.974Z,57.13
2022-08-17T10:22:32.720Z,57.28
2022-08-17T10:25:54.135Z,57.43
2022-08-17T10:28:52.750Z,57.32
2022-08-17T10:31:49.928Z,57.46
2022-08-17T10:35:01.880Z,57.64
2022-08-17T10:38:24.772Z,57.99
2022-08-17T10:41:36.838Z,58.57
2022-08-17T10:44:43.191Z,59.13
2022-08-17T10:48:04.755Z,59.33
2022-08-17T10:51:07.524Z,59.65
2022-08-17T10:54:02.250Z,60.01
2022-08-17T10:56:54.340Z,60.21
2022-08-17T10:59:55.976Z,60.45
2022-08-17T11:02:51.250Z,60.58
2022-08-17T11:05:54.224Z,61.19
2022-08-17T11:09:14.285Z,61.60
2022-08-17T11:12:16.490Z,62.09
2022-08-17T11:15:23.283Z,62.26
2022-08-17T11:18:42.120Z,62.25
2022-08-17T11:21:58.400Z,62.31
2022-08-17T11:24:54.870Z,62.28
2022-08-17T11:27:53.947Z,62.28
2022-08-17T11:30:53.576Z,62.38
2022-08-17T11:34:09.416Z,62.50
2022-08-17T11:37:29.824Z,62.67
2022-08-17T11:40:43.245Z,62.78
2022-08-17T11:44:03.771Z,62.72
2022-08-17T11:47:24.027Z,62.82
2022-08-17T11:50:56.481Z,62.60
2022-08-17T11:54:31.625Z,62.17
2022-08-17T11:57:47.486Z,62.04
2022-08-17T12:01:07.822Z,61.61
2022-08-17T12:04:18.656Z,61.47
2022-08-17T12:07:18.197Z,61.25
2022-08-17T12:10:12.365Z,61.29
2022-08-17T12:13:11.984Z,61.45
2022-08-17T12:16:02.670Z,61.57
2022-08-17T12:18:58.754Z,61.54
2022-08-17T12:21:54.667Z,61.72
2022-08-17T12:24:55.538Z,61.58
2022-08-17T12:28:06.401Z,61.54
2022-08-17T12:31:07.665Z,61.62
2022-08-17T12:34:00.564Z,61.56
2022-08-17T12:36:59.884Z,61.42
2022-08-17T12:39:58.013Z,61.33
2022-08-17T12:42:58.559Z,61.25
2022-08-17T12:46:01.275Z,61.52
2022-08-17T12:49:24.074Z,61.46
2022-08-17T12:52:18.955Z,61.26
2022-08-17T12:55:21.365Z,61.30
2022-08-17T12:58:19.871Z,61.58
2022-08-17T13:01:17.857Z,61.55
2022-08-17T13:04:09.776Z,61.61
2022-08-17T13:07:00.444Z,61.82
2022-08-17T13:09:55.314Z,61.81
2022-08-17T13:12:45.942Z,61.84
2022-08-17T13:15:44.394Z,61.74
2022-08-17T13:18:48.056Z,61.80
2022-08-17T13:21:38.960Z,61.75
2022-08-17T13:24:38.254Z,61.71
2022-08-17T13:27:31.616Z,62.08
2022-08-17T13:30:28.168Z,62.33
2022-08-17T13:33:43.276Z,62.35
2022-08-17T13:36:37.767Z,62.40
2022-08-17T13:39:41.658Z,62.53
2022-08-17T13:42:53.028Z,62.50
2022-08-17T13:45:54.184Z,62.68
2022-08-17T13:48:44.564Z,62.43
2022-08-17T13:51:42.938Z,62.33
2022-08-17T13:54:37.230Z,62.41
2022-08-17T13:57:28.599Z,62.79
2022-08-17T14:00:32.837Z,62.76
2022-08-17T14:03:25.280Z,62.98
2022-08-17T14:06:49.349Z,62.91
2022-08-17T14:09:36.798Z,62.98
2022-08-17T14:12:31.994Z,63.07
2022-08-17T14:15:24.857Z,63.20
2022-08-17T14:18:56.285Z,63.46
2022-08-17T14:21:47.030Z,63.54
2022-08-17T14:24:44.671Z,63.69
2022-08-17T14:27:47.097Z,63.89
2022-08-17T14:30:43.517Z,63.88
2022-08-17T14:33:35.069Z,63.89
2022-08-17T14:36:25.920Z,63.65
2022-08-17T14:39:17.194Z,62.20
2022-08-17T14:42:07.783Z,61.30
2022-08-17T14:45:00.343Z,61.03
2022-08-17T14:47:50.544Z,60.99
2022-08-17T14:50:46.224Z,61.18
2022-08-17T14:53:37.835Z,61.24
2022-08-17T14:56:28.575Z,61.31
2022-08-17T14:59:28.251Z,61.06
2022-08-17T15:02:18.806Z,60.75
2022-08-17T15:05:10.376Z,61.03
2022-08-17T15:08:01.461Z,61.27
2022-08-17T15:10:54.202Z,61.12
2022-08-17T15:13:52.169Z,61.30
2022-08-17T15:16:44.000Z,61.40
2022-08-17T15:19:34.767Z,61.09
2022-08-17T15:22:28.143Z,60.61
2022-08-17T15:25:22.193Z,60.20
2022-08-17T15:28:13.479Z,59.88
2022-08-17T15:31:03.976Z,59.63
2022-08-17T15:33:54.750Z,59.48
2022-08-17T15:36:49.145Z,59.13
2022-08-17T15:39:40.262Z,59.16
2022-08-17T15:42:30.501Z,59.09
2022-08-17T15:45:26.672Z,59.27
2022-08-17T15:48:22.815Z,59.07
2022-08-17T15:51:15.080Z,58.84
2022-08-17T15:54:22.476Z,58.96
2022-08-17T15:57:13.659Z,58.66
2022-08-17T16:00:04.037Z,58.63
2022-08-17T16:03:46.253Z,58.30
2022-08-17T16:06:17.194Z,58.37
2022-08-17T16:09:07.578Z,58.05
2022-08-17T16:11:57.973Z,57.96
2022-08-17T16:14:50.346Z,57.79
2022-08-17T16:17:41.645Z,57.78
2022-08-17T16:20:33.020Z,57.65
2022-08-17T16:23:23.760Z,57.20
2022-08-17T16:26:13.642Z,56.94
2022-08-17T16:29:08.033Z,57.03
2022-08-17T16:31:58.870Z,56.81
2022-08-17T16:34:49.214Z,56.85
2022-08-17T16:37:41.793Z,56.66
2022-08-17T16:40:36.743Z,56.75
2022-08-17T16:43:28.395Z,56.83
2022-08-17T16:46:19.256Z,56.75
2022-08-17T16:49:10.982Z,56.46
2022-08-17T16:52:14.975Z,56.43
2022-08-17T16:55:24.622Z,56.79
2022-08-17T16:58:16.046Z,57.03
2022-08-17T17:01:08.016Z,57.13
2022-08-17T17:04:04.573Z,57.14
2022-08-17T17:07:02.855Z,57.16
2022-08-17T17:09:56.300Z,56.78
2022-08-17T17:13:01.689Z,56.63
2022-08-17T17:16:00.299Z,56.40
2022-08-17T17:19:05.342Z,56.26
2022-08-17T17:22:03.976Z,56.11
2022-08-17T17:25:03.112Z,56.04
2022-08-17T17:28:02.903Z,55.94
2022-08-17T17:30:59.187Z,55.80
2022-08-17T17:33:54.637Z,55.89
2022-08-17T17:36:50.271Z,55.80
2022-08-17T17:39:45.419Z,55.72
2022-08-17T17:42:35.826Z,55.66
2022-08-17T17:45:34.626Z,55.54
2022-08-17T17:48:24.911Z,55.22
2022-08-17T17:52:06.720Z,55.14
2022-08-17T17:54:40.738Z,54.98
2022-08-17T17:57:41.884Z,54.88
2022-08-17T18:00:38.015Z,54.87
2022-08-17T18:03:50.681Z,54.83
2022-08-17T18:06:50.493Z,54.87
2022-08-17T18:10:01.620Z,54.76
2022-08-17T18:13:00.127Z,55.00
2022-08-17T18:15:53.043Z,54.98
2022-08-17T18:18:44.838Z,54.64
2022-08-17T18:21:39.801Z,54.51
2022-08-17T18:24:35.667Z,53.92
2022-08-17T18:27:35.621Z,53.52
2022-08-17T18:30:31.201Z,53.37
2022-08-17T18:33:26.939Z,53.08
2022-08-17T18:36:29.571Z,53.24
2022-08-17T18:39:27.018Z,53.31
2022-08-17T18:42:28.311Z,53.18
2022-08-17T18:45:35.362Z,53.14
2022-08-17T18:48:33.153Z,53.28
2022-08-17T18:51:41.016Z,53.50
2022-08-17T18:54:32.942Z,53.72
2022-08-17T18:57:31.785Z,53.75
2022-08-17T19:00:38.482Z,53.72
2022-08-17T19:03:29.609Z,53.71
2022-08-17T19:06:24.977Z,53.64
2022-08-17T19:09:35.144Z,53.66
2022-08-17T19:12:32.704Z,53.70
2022-08-17T19:15:29.069Z,53.62
2022-08-17T19:18:24.100Z,53.60
2022-08-17T19:21:21.558Z,53.47
2022-08-17T19:24:19.542Z,52.81
2022-08-17T19:27:20.456Z,52.48
2022-08-17T19:30:17.154Z,52.31
2022-08-17T19:33:07.197Z,52.21
2022-08-17T19:36:06.654Z,52.43
2022-08-17T19:39:05.011Z,52.52
2022-08-17T19:42:14.041Z,52.50
2022-08-17T19:45:12.994Z,52.63
2022-08-17T19:48:13.523Z,52.81
2022-08-17T19:51:07.358Z,53.12
2022-08-17T19:54:06.705Z,53.15
2022-08-17T19:57:05.934Z,53.22
2022-08-17T20:00:00.229Z,53.20
2022-08-17T20:02:57.578Z,53.12
2022-08-17T20:06:11.904Z,53.29
2022-08-17T20:09:15.167Z,53.48
2022-08-17T20:12:10.635Z,53.51
2022-08-17T20:15:05.553Z,53.47
2022-08-17T20:17:58.918Z,53.54
2022-08-17T20:20:57.050Z,53.53
2022-08-17T20:23:58.618Z,53.46
2022-08-17T20:26:58.812Z,53.51
2022-08-17T20:30:11.505Z,53.34
2022-08-17T20:33:05.351Z,53.02
2022-08-17T20:36:17.335Z,53.08
2022-08-17T20:39:34.057Z,52.75
2022-08-17T20:42:35.163Z,52.44
2022-08-17T20:45:54.125Z,52.29
2022-08-17T20:48:47.649Z,51.84
2022-08-17T20:51:43.357Z,51.75
2022-08-17T20:54:52.982Z,51.93
2022-08-17T20:57:50.423Z,52.08
2022-08-17T21:00:46.831Z,52.15
2022-08-17T21:03:59.188Z,52.20
2022-08-17T21:07:19.919Z,52.23
2022-08-17T21:10:16.198Z,52.21
2022-08-17T21:13:38.820Z,52.14
2022-08-17T21:16:51.558Z,52.29
2022-08-17T21:20:13.816Z,52.42
2022-08-17T21:23:21.440Z,52.53
2022-08-17T21:26:26.733Z,52.61
2022-08-17T21:29:32.531Z,52.68
2022-08-17T21:32:31.518Z,52.76
2022-08-17T21:35:31.133Z,52.80
2022-08-17T21:38:24.484Z,52.91
2022-08-17T21:41:23.468Z,53.01
2022-08-17T21:44:30.520Z,52.97
2022-08-17T21:47:25.461Z,53.09
2022-08-17T21:50:23.806Z,53.25
2022-08-17T21:53:25.387Z,53.27
2022-08-17T21:56:26.425Z,52.98
2022-08-17T21:59:27.918Z,52.51
2022-08-17T22:02:24.345Z,52.15
2022-08-17T22:05:16.724Z,52.13
2022-08-17T22:08:19.528Z,51.67
2022-08-17T22:11:10.418Z,51.43
2022-08-17T22:14:05.949Z,51.46
2022-08-17T22:17:20.323Z,51.32
2022-08-17T22:20:18.483Z,51.41
2022-08-17T22:23:32.382Z,51.71
2022-08-17T22:26:25.899Z,51.31
2022-08-17T22:29:57.571Z,51.46
2022-08-17T22:32:50.129Z,51.65
2022-08-17T22:35:42.804Z,51.62
2022-08-17T22:38:34.089Z,51.36
2022-08-17T22:41:32.076Z,51.29
2022-08-17T22:44:29.645Z,51.38
2022-08-17T22:47:38.935Z,51.49
2022-08-17T22:50:34.423Z,51.34
2022-08-17T22:53:58.193Z,51.51
2022-08-17T22:57:16.212Z,51.72
2022-08-17T23:00:32.357Z,51.81
2022-08-17T23:03:25.747Z,51.66
2022-08-17T23:06:16.559Z,51.70
2022-08-17T23:09:07.883Z,51.71
2022-08-17T23:11:59.045Z,51.68
2022-08-17T23:14:57.811Z,51.62
2022-08-17T23:17:48.765Z,51.72
2022-08-17T23:20:41.390Z,51.60
2022-08-17T23:23:31.844Z,51.43
2022-08-17T23:26:23.615Z,51.29
2022-08-17T23:29:14.211Z,51.13
2022-08-17T23:32:06.197Z,51.26
2022-08-17T23:34:59.254Z,51.41
2022-08-17T23:37:49.963Z,51.23
2022-08-17T23:40:41.233Z,51.30
2022-08-17T23:43:32.567Z,51.14
2022-08-17T23:46:25.142Z,51.13
2022-08-17T23:49:15.850Z,51.20
2022-08-17T23:52:09.927Z,51.36
2022-08-17T23:55:01.326Z,51.36
2022-08-17T23:57:52.210Z,51.36
